^^
Station Historical Data
Daily Summary for November 5, 2017 Units:  Both    English   Metric
« Previous Day
Next Day »
Daily Weekly Monthly Yearly Custom
  High: Low: Average:
Temperature: TemperatureF °F /  -17.8 °C 60.3 °F /  15.7 °C 76.3 °F /  24.6 °C
Dew Point: DewpointF °F /  -17.8 °C 32.2 °F /  0.1 °C 39.8 °F /  4.3 °C
Humidity: Humidity% 13% 31%
Wind Speed: WindSpeedMPHmph /  0km/h - 2mph /  3.2km/h
Wind Gust: WindSpeedGustMPHmph /  0km/h - -
Wind- - East
Pressure: PressureIn in /  0 hPa 29.72 in /  1006.3 hPa -
Precipitation: 0.00 in /  0 mm    
Historical Graphs
 
 
Tabular Data for November 5, 2017
Time Temperature Dew Point Pressure Wind Wind Speed Wind Gust Humidity Rainfall Rate (Hourly) solar Conditions
TemperatureF °F /  -17.8 °C DewpointF °F /  -17.8 °C PressureInin /  0hPa Calm     Humidity% HourlyPrecipInin /  0mm SolarRadiationWatts/m^2 W/m2 Conditions
00:00 67.6 °F /  19.8 °C 52.9 °F /  11.6 °C 29.87in /  1011.4hPa Calm     59% 0.00in /  0mm 0.0 W/m2
00:06 67.5 °F /  19.7 °C 53.6 °F /  12 °C 29.87in /  1011.4hPa Calm     61% 0.00in /  0mm 0.0 W/m2
00:11 67.5 °F /  19.7 °C 53.6 °F /  12 °C 29.87in /  1011.4hPa Calm     61% 0.00in /  0mm 0.0 W/m2
00:16 67.3 °F /  19.6 °C 53.4 °F /  11.9 °C 29.87in /  1011.4hPa Calm     61% 0.00in /  0mm 0.0 W/m2
00:21 66.9 °F /  19.4 °C 52.2 °F /  11.2 °C 29.87in /  1011.4hPa Calm     59% 0.00in /  0mm 0.0 W/m2
00:26 66.7 °F /  19.3 °C 51.1 °F /  10.6 °C 29.87in /  1011.4hPa Calm     57% 0.00in /  0mm 0.0 W/m2
00:31 66.7 °F /  19.3 °C 52.3 °F /  11.3 °C 29.87in /  1011.4hPa Calm     60% 0.00in /  0mm 0.0 W/m2
00:36 66.6 °F /  19.2 °C 51.8 °F /  11 °C 29.87in /  1011.4hPa Calm     59% 0.00in /  0mm 0.0 W/m2
00:41 66.6 °F /  19.2 °C 51.8 °F /  11 °C 29.87in /  1011.4hPa Calm     59% 0.00in /  0mm 0.0 W/m2
00:46 66.4 °F /  19.1 °C 51.6 °F /  10.9 °C 29.86in /  1011.1hPa Calm     59% 0.00in /  0mm 0.0 W/m2
00:52 66.4 °F /  19.1 °C 51.6 °F /  10.9 °C 29.86in /  1011.1hPa Calm     59% 0.00in /  0mm 0.0 W/m2
00:57 66.2 °F /  19 °C 51.4 °F /  10.8 °C 29.86in /  1011.1hPa Calm     59% 0.00in /  0mm 0.0 W/m2
01:02 66.0 °F /  18.9 °C 51.3 °F /  10.7 °C 29.86in /  1011.1hPa Calm     59% 0.00in /  0mm 0.0 W/m2
01:08 65.8 °F /  18.8 °C 51.1 °F /  10.6 °C 29.86in /  1011.1hPa Calm     59% 0.00in /  0mm 0.0 W/m2
01:13 65.7 °F /  18.7 °C 51.4 °F /  10.8 °C 29.86in /  1011.1hPa Calm     60% 0.00in /  0mm 0.0 W/m2
01:17 65.7 °F /  18.7 °C 51.4 °F /  10.8 °C 29.86in /  1011.1hPa Calm     60% 0.00in /  0mm 0.0 W/m2
01:23 65.5 °F /  18.6 °C 51.3 °F /  10.7 °C 29.86in /  1011.1hPa Calm   2.0mph /  3.2km/h 60% 0.00in /  0mm 0.0 W/m2
01:28 65.3 °F /  18.5 °C 51.1 °F /  10.6 °C 29.85in /  1010.7hPa Calm   2.0mph /  3.2km/h 60% 0.00in /  0mm 0.0 W/m2
01:33 65.1 °F /  18.4 °C 50.4 °F /  10.2 °C 29.85in /  1010.7hPa Calm   1.0mph /  1.6km/h 59% 0.00in /  0mm 0.0 W/m2
01:39 64.9 °F /  18.3 °C 49.8 °F /  9.9 °C 29.85in /  1010.7hPa Calm     58% 0.00in /  0mm 0.0 W/m2
01:44 64.9 °F /  18.3 °C 49.8 °F /  9.9 °C 29.85in /  1010.7hPa Calm   1.0mph /  1.6km/h 58% 0.00in /  0mm 0.0 W/m2
01:49 64.8 °F /  18.2 °C 49.6 °F /  9.8 °C 29.85in /  1010.7hPa Calm     58% 0.00in /  0mm 0.0 W/m2
01:54 64.8 °F /  18.2 °C 49.1 °F /  9.5 °C 29.85in /  1010.7hPa Calm   1.0mph /  1.6km/h 57% 0.00in /  0mm 0.0 W/m2
02:00 64.6 °F /  18.1 °C 48.9 °F /  9.4 °C 29.85in /  1010.7hPa East 0.9mph /  1.4km/h 2.0mph /  3.2km/h 57% 0.00in /  0mm 0.0 W/m2
02:06 64.6 °F /  18.1 °C 48.6 °F /  9.2 °C 29.84in /  1010.4hPa Calm   1.0mph /  1.6km/h 56% 0.00in /  0mm 0.0 W/m2
02:11 64.6 °F /  18.1 °C 48.0 °F /  8.9 °C 29.84in /  1010.4hPa Calm   2.0mph /  3.2km/h 55% 0.00in /  0mm 0.0 W/m2
02:16 64.6 °F /  18.1 °C 47.5 °F /  8.6 °C 29.84in /  1010.4hPa ESE 0.9mph /  1.4km/h 1.0mph /  1.6km/h 54% 0.00in /  0mm 0.0 W/m2
02:21 64.6 °F /  18.1 °C 47.5 °F /  8.6 °C 29.84in /  1010.4hPa Calm   1.0mph /  1.6km/h 54% 0.00in /  0mm 0.0 W/m2
02:26 64.6 °F /  18.1 °C 47.1 °F /  8.4 °C 29.84in /  1010.4hPa Calm     53% 0.00in /  0mm 0.0 W/m2
02:32 64.2 °F /  17.9 °C 46.8 °F /  8.2 °C 29.83in /  1010hPa Calm   1.0mph /  1.6km/h 53% 0.00in /  0mm 0.0 W/m2
02:37 64.0 °F /  17.8 °C 45.5 °F /  7.5 °C 29.83in /  1010hPa Calm   2.0mph /  3.2km/h 51% 0.00in /  0mm 0.0 W/m2
02:42 64.0 °F /  17.8 °C 45.0 °F /  7.2 °C 29.83in /  1010hPa Calm   1.0mph /  1.6km/h 50% 0.00in /  0mm 0.0 W/m2
02:47 63.9 °F /  17.7 °C 44.8 °F /  7.1 °C 29.83in /  1010hPa Calm   1.0mph /  1.6km/h 50% 0.00in /  0mm 0.0 W/m2
02:53 63.7 °F /  17.6 °C 43.7 °F /  6.5 °C 29.83in /  1010hPa Calm   2.0mph /  3.2km/h 48% 0.00in /  0mm 0.0 W/m2
02:58 63.7 °F /  17.6 °C 43.7 °F /  6.5 °C 29.83in /  1010hPa Calm   1.0mph /  1.6km/h 48% 0.00in /  0mm 0.0 W/m2
03:03 63.7 °F /  17.6 °C 42.4 °F /  5.8 °C 29.83in /  1010hPa ESE 2.0mph /  3.2km/h 2.0mph /  3.2km/h 46% 0.00in /  0mm 0.0 W/m2
03:08 63.9 °F /  17.7 °C 41.0 °F /  5 °C 29.83in /  1010hPa Calm   1.0mph /  1.6km/h 43% 0.00in /  0mm 0.0 W/m2
03:13 64.2 °F /  17.9 °C 40.6 °F /  4.8 °C 29.83in /  1010hPa Calm   2.0mph /  3.2km/h 42% 0.00in /  0mm 0.0 W/m2
03:19 64.6 °F /  18.1 °C 40.3 °F /  4.6 °C 29.83in /  1010hPa Calm   2.0mph /  3.2km/h 41% 0.00in /  0mm 0.0 W/m2
03:24 64.8 °F /  18.2 °C 39.9 °F /  4.4 °C 29.83in /  1010hPa East 0.9mph /  1.4km/h 3.0mph /  4.8km/h 40% 0.00in /  0mm 0.0 W/m2
03:29 65.1 °F /  18.4 °C 40.3 °F /  4.6 °C 29.83in /  1010hPa Calm   5.0mph /  8km/h 40% 0.00in /  0mm 0.0 W/m2
03:34 65.5 °F /  18.6 °C 39.9 °F /  4.4 °C 29.83in /  1010hPa East 0.9mph /  1.4km/h 5.0mph /  8km/h 39% 0.00in /  0mm 0.0 W/m2
03:39 65.7 °F /  18.7 °C 39.4 °F /  4.1 °C 29.83in /  1010hPa Calm   1.0mph /  1.6km/h 38% 0.00in /  0mm 0.0 W/m2
03:45 65.8 °F /  18.8 °C 38.8 °F /  3.8 °C 29.83in /  1010hPa East 2.0mph /  3.2km/h 2.0mph /  3.2km/h 37% 0.00in /  0mm 0.0 W/m2
03:50 65.8 °F /  18.8 °C 38.8 °F /  3.8 °C 29.83in /  1010hPa ESE 0.9mph /  1.4km/h 5.0mph /  8km/h 37% 0.00in /  0mm 0.0 W/m2
03:55 66.0 °F /  18.9 °C 39.0 °F /  3.9 °C 29.83in /  1010hPa Calm   2.0mph /  3.2km/h 37% 0.00in /  0mm 0.0 W/m2
03:57 66.0 °F /  18.9 °C 38.3 °F /  3.5 °C 29.83in /  1010hPa Calm   3.0mph /  4.8km/h 36% 0.00in /  0mm 0.0 W/m2
04:02 66.0 °F /  18.9 °C 39.0 °F /  3.9 °C 29.83in /  1010hPa Calm     37% 0.00in /  0mm 0.0 W/m2
04:07 66.0 °F /  18.9 °C 39.0 °F /  3.9 °C 29.83in /  1010hPa Calm     37% 0.00in /  0mm 0.0 W/m2
04:12 65.8 °F /  18.8 °C 39.6 °F /  4.2 °C 29.83in /  1010hPa Calm     38% 0.00in /  0mm 0.0 W/m2
04:17 65.5 °F /  18.6 °C 39.9 °F /  4.4 °C 29.83in /  1010hPa Calm     39% 0.00in /  0mm 0.0 W/m2
04:22 65.1 °F /  18.4 °C 39.6 °F /  4.2 °C 29.83in /  1010hPa Calm   1.0mph /  1.6km/h 39% 0.00in /  0mm 0.0 W/m2
04:27 64.9 °F /  18.3 °C 40.1 °F /  4.5 °C 29.83in /  1010hPa Calm     40% 0.00in /  0mm 0.0 W/m2
04:33 64.6 °F /  18.1 °C 41.0 °F /  5 °C 29.83in /  1010hPa ENE 0.9mph /  1.4km/h 1.0mph /  1.6km/h 42% 0.00in /  0mm 0.0 W/m2
04:38 64.2 °F /  17.9 °C 41.2 °F /  5.1 °C 29.83in /  1010hPa Calm     43% 0.00in /  0mm 0.0 W/m2
04:43 63.9 °F /  17.7 °C 41.5 °F /  5.3 °C 29.83in /  1010hPa Calm     44% 0.00in /  0mm 0.0 W/m2
04:48 63.7 °F /  17.6 °C 41.4 °F /  5.2 °C 29.83in /  1010hPa Calm   2.0mph /  3.2km/h 44% 0.00in /  0mm 0.0 W/m2
04:53 63.3 °F /  17.4 °C 42.3 °F /  5.7 °C 29.83in /  1010hPa Calm   2.0mph /  3.2km/h 46% 0.00in /  0mm 0.0 W/m2
04:58 63.1 °F /  17.3 °C 42.1 °F /  5.6 °C 29.83in /  1010hPa NE 0.9mph /  1.4km/h 2.0mph /  3.2km/h 46% 0.00in /  0mm 0.0 W/m2
05:03 63.0 °F /  17.2 °C 42.4 °F /  5.8 °C 29.84in /  1010.4hPa Calm     47% 0.00in /  0mm 0.0 W/m2
05:08 62.8 °F /  17.1 °C 42.8 °F /  6 °C 29.84in /  1010.4hPa Calm   1.0mph /  1.6km/h 48% 0.00in /  0mm 0.0 W/m2
05:15 62.2 °F /  16.8 °C 42.3 °F /  5.7 °C 29.84in /  1010.4hPa Calm   1.0mph /  1.6km/h 48% 0.00in /  0mm 0.0 W/m2
05:20 62.1 °F /  16.7 °C 42.6 °F /  5.9 °C 29.84in /  1010.4hPa Calm   1.0mph /  1.6km/h 49% 0.00in /  0mm 0.0 W/m2
05:25 61.9 °F /  16.6 °C 42.4 °F /  5.8 °C 29.84in /  1010.4hPa Calm   1.0mph /  1.6km/h 49% 0.00in /  0mm 0.0 W/m2
05:27 61.7 °F /  16.5 °C 42.3 °F /  5.7 °C 29.84in /  1010.4hPa Calm   2.0mph /  3.2km/h 49% 0.00in /  0mm 0.0 W/m2
05:31 61.5 °F /  16.4 °C 42.3 °F /  5.7 °C 29.84in /  1010.4hPa Calm     49% 0.00in /  0mm 0.0 W/m2
05:34 61.5 °F /  16.4 °C 42.3 °F /  5.7 °C 29.84in /  1010.4hPa Calm     49% 0.00in /  0mm 0.0 W/m2
05:37 61.3 °F /  16.3 °C 42.6 °F /  5.9 °C 29.85in /  1010.7hPa ENE 2.0mph /  3.2km/h 2.0mph /  3.2km/h 50% 0.00in /  0mm 0.0 W/m2
05:42 61.2 °F /  16.2 °C 41.9 °F /  5.5 °C 29.85in /  1010.7hPa Calm   1.0mph /  1.6km/h 49% 0.00in /  0mm 0.0 W/m2
05:47 61.0 °F /  16.1 °C 41.7 °F /  5.4 °C 29.85in /  1010.7hPa East 0.9mph /  1.4km/h 2.0mph /  3.2km/h 49% 0.00in /  0mm 0.0 W/m2
05:52 60.8 °F /  16 °C 42.1 °F /  5.6 °C 29.85in /  1010.7hPa East 0.9mph /  1.4km/h 2.0mph /  3.2km/h 50% 0.00in /  0mm 0.0 W/m2
05:58 60.6 °F /  15.9 °C 42.4 °F /  5.8 °C 29.85in /  1010.7hPa Calm   2.0mph /  3.2km/h 51% 0.00in /  0mm 0.0 W/m2
06:03 60.6 °F /  15.9 °C 42.4 °F /  5.8 °C 29.85in /  1010.7hPa ENE 0.9mph /  1.4km/h 1.0mph /  1.6km/h 51% 0.00in /  0mm 0.0 W/m2
06:05 60.4 °F /  15.8 °C 42.3 °F /  5.7 °C 29.85in /  1010.7hPa Calm   2.0mph /  3.2km/h 51% 0.00in /  0mm 0.0 W/m2
06:10 60.4 °F /  15.8 °C 42.3 °F /  5.7 °C 29.85in /  1010.7hPa ENE 0.9mph /  1.4km/h 3.0mph /  4.8km/h 51% 0.00in /  0mm 5.0 W/m2
06:15 60.4 °F /  15.8 °C 42.3 °F /  5.7 °C 29.85in /  1010.7hPa East 0.9mph /  1.4km/h 3.0mph /  4.8km/h 51% 0.00in /  0mm 9.0 W/m2
06:20 60.3 °F /  15.7 °C 42.1 °F /  5.6 °C 29.85in /  1010.7hPa East 0.9mph /  1.4km/h 1.0mph /  1.6km/h 51% 0.00in /  0mm 11.0 W/m2
06:25 60.3 °F /  15.7 °C 42.1 °F /  5.6 °C 29.86in /  1011.1hPa Calm   2.0mph /  3.2km/h 51% 0.00in /  0mm 14.0 W/m2
06:30 60.3 °F /  15.7 °C 42.1 °F /  5.6 °C 29.86in /  1011.1hPa Calm   1.0mph /  1.6km/h 51% 0.00in /  0mm 16.0 W/m2
06:35 60.3 °F /  15.7 °C 42.1 °F /  5.6 °C 29.86in /  1011.1hPa Calm   1.0mph /  1.6km/h 51% 0.00in /  0mm 18.0 W/m2
06:40 60.3 °F /  15.7 °C 42.1 °F /  5.6 °C 29.86in /  1011.1hPa East 0.9mph /  1.4km/h 1.0mph /  1.6km/h 51% 0.00in /  0mm 21.0 W/m2
06:46 60.3 °F /  15.7 °C 42.6 °F /  5.9 °C 29.86in /  1011.1hPa Calm   2.0mph /  3.2km/h 52% 0.00in /  0mm 23.0 W/m2
06:51 60.4 °F /  15.8 °C 42.8 °F /  6 °C 29.86in /  1011.1hPa Calm   3.0mph /  4.8km/h 52% 0.00in /  0mm 25.0 W/m2
06:56 60.4 °F /  15.8 °C 42.8 °F /  6 °C 29.87in /  1011.4hPa Calm   1.0mph /  1.6km/h 52% 0.00in /  0mm 26.0 W/m2
07:01 60.6 °F /  15.9 °C 43.0 °F /  6.1 °C 29.87in /  1011.4hPa ENE 0.9mph /  1.4km/h 2.0mph /  3.2km/h 52% 0.00in /  0mm 26.0 W/m2
07:06 60.8 °F /  16 °C 43.0 °F /  6.1 °C 29.87in /  1011.4hPa Calm   3.0mph /  4.8km/h 52% 0.00in /  0mm 28.0 W/m2
07:11 61.2 °F /  16.2 °C 43.0 °F /  6.1 °C 29.87in /  1011.4hPa East 0.9mph /  1.4km/h 1.0mph /  1.6km/h 51% 0.00in /  0mm 30.0 W/m2
07:16 61.5 °F /  16.4 °C 43.2 °F /  6.2 °C 29.88in /  1011.7hPa East 2.0mph /  3.2km/h 2.0mph /  3.2km/h 51% 0.00in /  0mm 33.0 W/m2
07:21 62.1 °F /  16.7 °C 43.2 °F /  6.2 °C 29.88in /  1011.7hPa Calm   1.0mph /  1.6km/h 50% 0.00in /  0mm 33.0 W/m2
07:27 62.4 °F /  16.9 °C 43.5 °F /  6.4 °C 29.88in /  1011.7hPa ESE 0.9mph /  1.4km/h 2.0mph /  3.2km/h 50% 0.00in /  0mm 35.0 W/m2
07:32 62.8 °F /  17.1 °C 43.9 °F /  6.6 °C 29.88in /  1011.7hPa Calm     50% 0.00in /  0mm 39.0 W/m2
07:37 63.3 °F /  17.4 °C 42.3 °F /  5.7 °C 29.88in /  1011.7hPa Calm   3.0mph /  4.8km/h 46% 0.00in /  0mm 44.0 W/m2
07:42 64.2 °F /  17.9 °C 41.9 °F /  5.5 °C 29.88in /  1011.7hPa NE 2.9mph /  4.7km/h 3.0mph /  4.8km/h 44% 0.00in /  0mm 47.0 W/m2
07:47 65.7 °F /  18.7 °C 39.4 °F /  4.1 °C 29.88in /  1011.7hPa Calm   5.0mph /  8km/h 38% 0.00in /  0mm 77.0 W/m2
07:52 67.6 °F /  19.8 °C 38.3 °F /  3.5 °C 29.87in /  1011.4hPa ESE 2.0mph /  3.2km/h 7.0mph /  11.3km/h 34% 0.00in /  0mm 350.0 W/m2
07:57 69.3 °F /  20.7 °C 38.8 °F /  3.8 °C 29.87in /  1011.4hPa Calm   1.0mph /  1.6km/h 33% 0.00in /  0mm 406.0 W/m2
08:02 70.3 °F /  21.3 °C 37.4 °F /  3 °C 29.87in /  1011.4hPa NE 2.0mph /  3.2km/h 7.0mph /  11.3km/h 30% 0.00in /  0mm 424.0 W/m2
08:07 71.6 °F /  22 °C 37.6 °F /  3.1 °C 29.87in /  1011.4hPa NE 4.0mph /  6.4km/h 7.0mph /  11.3km/h 29% 0.00in /  0mm 445.0 W/m2
08:12 72.7 °F /  22.6 °C 37.8 °F /  3.2 °C 29.87in /  1011.4hPa NE 4.9mph /  7.9km/h 10.0mph /  16.1km/h 28% 0.00in /  0mm 468.0 W/m2
08:17 73.8 °F /  23.2 °C 38.7 °F /  3.7 °C 29.87in /  1011.4hPa ESE 2.9mph /  4.7km/h 9.0mph /  14.5km/h 28% 0.00in /  0mm 489.0 W/m2
08:22 74.7 °F /  23.7 °C 39.4 °F /  4.1 °C 29.87in /  1011.4hPa NNE 2.0mph /  3.2km/h 8.0mph /  12.9km/h 28% 0.00in /  0mm 508.0 W/m2
08:27 75.7 °F /  24.3 °C 38.5 °F /  3.6 °C 29.87in /  1011.4hPa Calm   7.0mph /  11.3km/h 26% 0.00in /  0mm 529.0 W/m2
08:33 76.6 °F /  24.8 °C 39.2 °F /  4 °C 29.87in /  1011.4hPa ENE 2.0mph /  3.2km/h 8.0mph /  12.9km/h 26% 0.00in /  0mm 548.0 W/m2
08:38 77.5 °F /  25.3 °C 37.9 °F /  3.3 °C 29.87in /  1011.4hPa NE 2.0mph /  3.2km/h 9.0mph /  14.5km/h 24% 0.00in /  0mm 568.0 W/m2
08:43 78.1 °F /  25.6 °C 38.3 °F /  3.5 °C 29.87in /  1011.4hPa NE 4.9mph /  7.9km/h 7.0mph /  11.3km/h 24% 0.00in /  0mm 584.0 W/m2
08:48 78.6 °F /  25.9 °C 38.8 °F /  3.8 °C 29.87in /  1011.4hPa NE 4.9mph /  7.9km/h 7.0mph /  11.3km/h 24% 0.00in /  0mm 603.0 W/m2
08:53 79.2 °F /  26.2 °C 39.2 °F /  4 °C 29.87in /  1011.4hPa ESE 2.9mph /  4.7km/h 11.0mph /  17.7km/h 24% 0.00in /  0mm 622.0 W/m2
08:58 79.5 °F /  26.4 °C 38.5 °F /  3.6 °C 29.87in /  1011.4hPa ENE 6.9mph /  11.1km/h 10.0mph /  16.1km/h 23% 0.00in /  0mm 638.0 W/m2
09:03 80.1 °F /  26.7 °C 38.8 °F /  3.8 °C 29.87in /  1011.4hPa NE 2.9mph /  4.7km/h 10.0mph /  16.1km/h 23% 0.00in /  0mm 656.0 W/m2
09:08 80.6 °F /  27 °C 38.3 °F /  3.5 °C 29.87in /  1011.4hPa NE 0.9mph /  1.4km/h 9.0mph /  14.5km/h 22% 0.00in /  0mm 673.0 W/m2
09:14 81.0 °F /  27.2 °C 38.5 °F /  3.6 °C 29.87in /  1011.4hPa SSE 2.0mph /  3.2km/h 8.0mph /  12.9km/h 22% 0.00in /  0mm 689.0 W/m2
09:19 81.3 °F /  27.4 °C 38.8 °F /  3.8 °C 29.86in /  1011.1hPa SE 4.9mph /  7.9km/h 11.0mph /  17.7km/h 22% 0.00in /  0mm 708.0 W/m2
09:24 81.5 °F /  27.5 °C 39.0 °F /  3.9 °C 29.86in /  1011.1hPa ENE 2.0mph /  3.2km/h 6.0mph /  9.7km/h 22% 0.00in /  0mm 728.0 W/m2
09:29 81.9 °F /  27.7 °C 39.2 °F /  4 °C 29.86in /  1011.1hPa ENE 0.9mph /  1.4km/h 11.0mph /  17.7km/h 22% 0.00in /  0mm 742.0 W/m2
09:32 82.0 °F /  27.8 °C 38.3 °F /  3.5 °C 29.86in /  1011.1hPa ESE 0.9mph /  1.4km/h 6.0mph /  9.7km/h 21% 0.00in /  0mm 756.0 W/m2
09:37 82.6 °F /  28.1 °C 38.7 °F /  3.7 °C 29.86in /  1011.1hPa ESE 8.1mph /  13km/h 10.0mph /  16.1km/h 21% 0.00in /  0mm 766.0 W/m2
09:42 82.8 °F /  28.2 °C 38.8 °F /  3.8 °C 29.86in /  1011.1hPa SE 4.9mph /  7.9km/h 10.0mph /  16.1km/h 21% 0.00in /  0mm 788.0 W/m2
09:47 82.9 °F /  28.3 °C 37.8 °F /  3.2 °C 29.86in /  1011.1hPa NNE 6.9mph /  11.1km/h 10.0mph /  16.1km/h 20% 0.00in /  0mm 802.0 W/m2
09:52 83.3 °F /  28.5 °C 36.7 °F /  2.6 °C 29.86in /  1011.1hPa SE 2.9mph /  4.7km/h 11.0mph /  17.7km/h 19% 0.00in /  0mm 814.0 W/m2
09:58 83.7 °F /  28.7 °C 35.6 °F /  2 °C 29.86in /  1011.1hPa East 8.1mph /  13km/h 12.0mph /  19.3km/h 18% 0.00in /  0mm 830.0 W/m2
10:04 84.0 °F /  28.9 °C 34.5 °F /  1.4 °C 29.86in /  1011.1hPa SE 2.0mph /  3.2km/h 11.0mph /  17.7km/h 17% 0.00in /  0mm 851.0 W/m2
10:09 84.4 °F /  29.1 °C 34.9 °F /  1.6 °C 29.86in /  1011.1hPa NE 2.9mph /  4.7km/h 11.0mph /  17.7km/h 17% 0.00in /  0mm 863.0 W/m2
10:14 84.4 °F /  29.1 °C 36.3 °F /  2.4 °C 29.86in /  1011.1hPa East 6.9mph /  11.1km/h 11.0mph /  17.7km/h 18% 0.00in /  0mm 874.0 W/m2
10:19 84.6 °F /  29.2 °C 34.9 °F /  1.6 °C 29.86in /  1011.1hPa East 2.0mph /  3.2km/h 8.0mph /  12.9km/h 17% 0.00in /  0mm 891.0 W/m2
10:24 84.9 °F /  29.4 °C 36.7 °F /  2.6 °C 29.86in /  1011.1hPa ESE 6.0mph /  9.7km/h 9.0mph /  14.5km/h 18% 0.00in /  0mm 902.0 W/m2
10:29 85.5 °F /  29.7 °C 35.6 °F /  2 °C 29.86in /  1011.1hPa ESE 10.1mph /  16.3km/h 11.0mph /  17.7km/h 17% 0.00in /  0mm 916.0 W/m2
10:34 85.6 °F /  29.8 °C 38.7 °F /  3.7 °C 29.85in /  1010.7hPa NNE 6.0mph /  9.7km/h 12.0mph /  19.3km/h 19% 0.00in /  0mm 921.0 W/m2
10:39 85.8 °F /  29.9 °C 37.4 °F /  3 °C 29.85in /  1010.7hPa NNE 4.9mph /  7.9km/h 8.0mph /  12.9km/h 18% 0.00in /  0mm 933.0 W/m2
10:44 86.0 °F /  30 °C 36.1 °F /  2.3 °C 29.85in /  1010.7hPa North 8.1mph /  13km/h 11.0mph /  17.7km/h 17% 0.00in /  0mm 944.0 W/m2
10:49 85.6 °F /  29.8 °C 35.8 °F /  2.1 °C 29.85in /  1010.7hPa ESE 2.0mph /  3.2km/h 14.0mph /  22.5km/h 17% 0.00in /  0mm 954.0 W/m2
10:55 85.8 °F /  29.9 °C 37.4 °F /  3 °C 29.85in /  1010.7hPa ESE 0.9mph /  1.4km/h 9.0mph /  14.5km/h 18% 0.00in /  0mm 962.0 W/m2
11:01 86.4 °F /  30.2 °C 36.3 °F /  2.4 °C 29.85in /  1010.7hPa NE 4.0mph /  6.4km/h 10.0mph /  16.1km/h 17% 0.00in /  0mm 969.0 W/m2
11:06 86.5 °F /  30.3 °C 36.5 °F /  2.5 °C 29.85in /  1010.7hPa ENE 2.0mph /  3.2km/h 8.0mph /  12.9km/h 17% 0.00in /  0mm 981.0 W/m2
11:11 86.7 °F /  30.4 °C 36.7 °F /  2.6 °C 29.85in /  1010.7hPa East 2.9mph /  4.7km/h 6.0mph /  9.7km/h 17% 0.00in /  0mm 990.0 W/m2
11:16 86.5 °F /  30.3 °C 36.5 °F /  2.5 °C 29.84in /  1010.4hPa ESE 4.0mph /  6.4km/h 13.0mph /  20.9km/h 17% 0.00in /  0mm 1004.0 W/m2
11:21 87.1 °F /  30.6 °C 37.0 °F /  2.8 °C 29.84in /  1010.4hPa NE 4.0mph /  6.4km/h 11.0mph /  17.7km/h 17% 0.00in /  0mm 1004.0 W/m2
11:26 87.4 °F /  30.8 °C 35.8 °F /  2.1 °C 29.84in /  1010.4hPa ENE 6.9mph /  11.1km/h 10.0mph /  16.1km/h 16% 0.00in /  0mm 1011.0 W/m2
11:31 87.6 °F /  30.9 °C 36.0 °F /  2.2 °C 29.84in /  1010.4hPa ENE 6.9mph /  11.1km/h 13.0mph /  20.9km/h 16% 0.00in /  0mm 1018.0 W/m2
11:37 87.4 °F /  30.8 °C 37.2 °F /  2.9 °C 29.84in /  1010.4hPa North 2.9mph /  4.7km/h 12.0mph /  19.3km/h 17% 0.00in /  0mm 1027.0 W/m2
11:42 87.4 °F /  30.8 °C 37.2 °F /  2.9 °C 29.84in /  1010.4hPa ESE 2.9mph /  4.7km/h 10.0mph /  16.1km/h 17% 0.00in /  0mm 1027.0 W/m2
11:52 87.4 °F /  30.8 °C 37.2 °F /  2.9 °C 29.83in /  1010hPa Calm   9.0mph /  14.5km/h 17% 0.00in /  0mm 1030.0 W/m2
11:58 87.8 °F /  31 °C 37.6 °F /  3.1 °C 29.83in /  1010hPa NE 4.9mph /  7.9km/h 9.0mph /  14.5km/h 17% 0.00in /  0mm 1034.0 W/m2
12:03 88.2 °F /  31.2 °C 37.9 °F /  3.3 °C 29.83in /  1010hPa East 6.0mph /  9.7km/h 15.0mph /  24.1km/h 17% 0.00in /  0mm 1041.0 W/m2
12:08 88.2 °F /  31.2 °C 36.3 °F /  2.4 °C 29.83in /  1010hPa East 2.9mph /  4.7km/h 10.0mph /  16.1km/h 16% 0.00in /  0mm 1049.0 W/m2
12:13 88.2 °F /  31.2 °C 37.9 °F /  3.3 °C 29.83in /  1010hPa SE 15.0mph /  24.1km/h 15.0mph /  24.1km/h 17% 0.00in /  0mm 1041.0 W/m2
12:18 88.0 °F /  31.1 °C 39.2 °F /  4 °C 29.82in /  1009.7hPa ESE 22.0mph /  35.4km/h 22.0mph /  35.4km/h 18% 0.00in /  0mm 1037.0 W/m2
12:24 88.3 °F /  31.3 °C 37.9 °F /  3.3 °C 29.82in /  1009.7hPa South 4.9mph /  7.9km/h 11.0mph /  17.7km/h 17% 0.00in /  0mm 1048.0 W/m2
12:29 88.7 °F /  31.5 °C 36.7 °F /  2.6 °C 29.82in /  1009.7hPa NE 2.0mph /  3.2km/h 11.0mph /  17.7km/h 16% 0.00in /  0mm 1051.0 W/m2
12:34 89.1 °F /  31.7 °C 37.0 °F /  2.8 °C 29.82in /  1009.7hPa SE 2.9mph /  4.7km/h 11.0mph /  17.7km/h 16% 0.00in /  0mm 1058.0 W/m2
12:39 89.2 °F /  31.8 °C 37.2 °F /  2.9 °C 29.82in /  1009.7hPa North 6.0mph /  9.7km/h 11.0mph /  17.7km/h 16% 0.00in /  0mm 1055.0 W/m2
12:44 88.9 °F /  31.6 °C 36.9 °F /  2.7 °C 29.81in /  1009.4hPa NE 4.9mph /  7.9km/h 13.0mph /  20.9km/h 16% 0.00in /  0mm 1053.0 W/m2
12:49 88.7 °F /  31.5 °C 36.7 °F /  2.6 °C 29.81in /  1009.4hPa NE 6.0mph /  9.7km/h 10.0mph /  16.1km/h 16% 0.00in /  0mm 1046.0 W/m2
12:54 89.1 °F /  31.7 °C 38.7 °F /  3.7 °C 29.80in /  1009hPa ENE 6.0mph /  9.7km/h 13.0mph /  20.9km/h 17% 0.00in /  0mm 1044.0 W/m2
12:59 89.4 °F /  31.9 °C 37.4 °F /  3 °C 29.80in /  1009hPa East 2.9mph /  4.7km/h 10.0mph /  16.1km/h 16% 0.00in /  0mm 1042.0 W/m2
13:04 89.6 °F /  32 °C 35.8 °F /  2.1 °C 29.80in /  1009hPa SE 0.9mph /  1.4km/h 14.0mph /  22.5km/h 15% 0.00in /  0mm 1032.0 W/m2
13:10 90.0 °F /  32.2 °C 36.1 °F /  2.3 °C 29.80in /  1009hPa NE 6.9mph /  11.1km/h 9.0mph /  14.5km/h 15% 0.00in /  0mm 1035.0 W/m2
13:15 90.0 °F /  32.2 °C 36.1 °F /  2.3 °C 29.80in /  1009hPa NNW 4.9mph /  7.9km/h 14.0mph /  22.5km/h 15% 0.00in /  0mm 1034.0 W/m2
13:20 90.0 °F /  32.2 °C 37.8 °F /  3.2 °C 29.80in /  1009hPa ESE 2.9mph /  4.7km/h 7.0mph /  11.3km/h 16% 0.00in /  0mm 1025.0 W/m2
13:25 90.7 °F /  32.6 °C 36.7 °F /  2.6 °C 29.79in /  1008.7hPa ENE 4.0mph /  6.4km/h 6.0mph /  9.7km/h 15% 0.00in /  0mm 1021.0 W/m2
13:30 91.0 °F /  32.8 °C 37.0 °F /  2.8 °C 29.79in /  1008.7hPa SE 6.0mph /  9.7km/h 10.0mph /  16.1km/h 15% 0.00in /  0mm 1023.0 W/m2
13:35 91.2 °F /  32.9 °C 37.0 °F /  2.8 °C 29.79in /  1008.7hPa ENE 4.0mph /  6.4km/h 12.0mph /  19.3km/h 15% 0.00in /  0mm 1002.0 W/m2
13:40 91.6 °F /  33.1 °C 35.6 °F /  2 °C 29.79in /  1008.7hPa NE 8.1mph /  13km/h 12.0mph /  19.3km/h 14% 0.00in /  0mm 1004.0 W/m2
13:46 91.2 °F /  32.9 °C 35.4 °F /  1.9 °C 29.79in /  1008.7hPa ESE 8.1mph /  13km/h 14.0mph /  22.5km/h 14% 0.00in /  0mm 995.0 W/m2
13:51 91.2 °F /  32.9 °C 37.0 °F /  2.8 °C 29.79in /  1008.7hPa ENE 4.0mph /  6.4km/h 5.0mph /  8km/h 15% 0.00in /  0mm 993.0 W/m2
13:56 91.6 °F /  33.1 °C 37.4 °F /  3 °C 29.78in /  1008.4hPa East 2.0mph /  3.2km/h 7.0mph /  11.3km/h 15% 0.00in /  0mm 988.0 W/m2
14:01 91.8 °F /  33.2 °C 34.0 °F /  1.1 °C 29.78in /  1008.4hPa ENE 8.1mph /  13km/h 13.0mph /  20.9km/h 13% 0.00in /  0mm 977.0 W/m2
14:06 91.6 °F /  33.1 °C 35.6 °F /  2 °C 29.78in /  1008.4hPa ESE 6.0mph /  9.7km/h 14.0mph /  22.5km/h 14% 0.00in /  0mm 960.0 W/m2
14:11 91.6 °F /  33.1 °C 35.6 °F /  2 °C 29.78in /  1008.4hPa NE 6.0mph /  9.7km/h 13.0mph /  20.9km/h 14% 0.00in /  0mm 956.0 W/m2
14:16 91.6 °F /  33.1 °C 35.6 °F /  2 °C 29.78in /  1008.4hPa ESE 4.0mph /  6.4km/h 10.0mph /  16.1km/h 14% 0.00in /  0mm 958.0 W/m2
14:21 91.2 °F /  32.9 °C 35.4 °F /  1.9 °C 29.78in /  1008.4hPa NE 4.9mph /  7.9km/h 5.0mph /  8km/h 14% 0.00in /  0mm 946.0 W/m2
14:26 91.2 °F /  32.9 °C 37.0 °F /  2.8 °C 29.78in /  1008.4hPa ENE 2.0mph /  3.2km/h 7.0mph /  11.3km/h 15% 0.00in /  0mm 951.0 W/m2
14:31 91.9 °F /  33.3 °C 36.0 °F /  2.2 °C 29.77in /  1008hPa SE 4.9mph /  7.9km/h 9.0mph /  14.5km/h 14% 0.00in /  0mm 967.0 W/m2
14:37 91.8 °F /  33.2 °C 35.8 °F /  2.1 °C 29.77in /  1008hPa NE 4.0mph /  6.4km/h 9.0mph /  14.5km/h 14% 0.00in /  0mm 956.0 W/m2
14:42 91.8 °F /  33.2 °C 35.8 °F /  2.1 °C 29.77in /  1008hPa NE 6.9mph /  11.1km/h 9.0mph /  14.5km/h 14% 0.00in /  0mm 912.0 W/m2
14:47 91.9 °F /  33.3 °C 36.0 °F /  2.2 °C 29.77in /  1008hPa SSE 2.0mph /  3.2km/h 7.0mph /  11.3km/h 14% 0.00in /  0mm 898.0 W/m2
14:52 92.5 °F /  33.6 °C 36.3 °F /  2.4 °C 29.76in /  1007.7hPa NNE 4.0mph /  6.4km/h 5.0mph /  8km/h 14% 0.00in /  0mm 889.0 W/m2
14:57 92.8 °F /  33.8 °C 34.7 °F /  1.5 °C 29.77in /  1008hPa Calm   6.0mph /  9.7km/h 13% 0.00in /  0mm 875.0 W/m2
15:03 92.7 °F /  33.7 °C 34.7 °F /  1.5 °C 29.76in /  1007.7hPa NE 4.9mph /  7.9km/h 13.0mph /  20.9km/h 13% 0.00in /  0mm 865.0 W/m2
15:08 92.5 °F /  33.6 °C 34.5 °F /  1.4 °C 29.76in /  1007.7hPa ESE 2.0mph /  3.2km/h 7.0mph /  11.3km/h 13% 0.00in /  0mm 863.0 W/m2
15:13 92.7 °F /  33.7 °C 34.7 °F /  1.5 °C 29.76in /  1007.7hPa ESE 8.9mph /  14.3km/h 12.0mph /  19.3km/h 13% 0.00in /  0mm 854.0 W/m2
15:18 91.9 °F /  33.3 °C 36.0 °F /  2.2 °C 29.75in /  1007.3hPa ESE 4.0mph /  6.4km/h 12.0mph /  19.3km/h 14% 0.00in /  0mm 856.0 W/m2
15:24 91.6 °F /  33.1 °C 35.6 °F /  2 °C 29.75in /  1007.3hPa ESE 0.9mph /  1.4km/h 8.0mph /  12.9km/h 14% 0.00in /  0mm 109.0 W/m2
15:29 90.9 °F /  32.7 °C 35.1 °F /  1.7 °C 29.75in /  1007.3hPa Calm   3.0mph /  4.8km/h 14% 0.00in /  0mm 271.0 W/m2
15:34 90.9 °F /  32.7 °C 36.9 °F /  2.7 °C 29.75in /  1007.3hPa ESE 4.0mph /  6.4km/h 8.0mph /  12.9km/h 15% 0.00in /  0mm 800.0 W/m2
15:39 91.0 °F /  32.8 °C 35.2 °F /  1.8 °C 29.75in /  1007.3hPa NE 2.9mph /  4.7km/h 7.0mph /  11.3km/h 14% 0.00in /  0mm 786.0 W/m2
15:44 91.6 °F /  33.1 °C 35.6 °F /  2 °C 29.75in /  1007.3hPa East 2.0mph /  3.2km/h 7.0mph /  11.3km/h 14% 0.00in /  0mm 770.0 W/m2
15:49 91.8 °F /  33.2 °C 35.8 °F /  2.1 °C 29.74in /  1007hPa North 4.0mph /  6.4km/h 5.0mph /  8km/h 14% 0.00in /  0mm 758.0 W/m2
15:54 91.9 °F /  33.3 °C 36.0 °F /  2.2 °C 29.74in /  1007hPa ESE 6.9mph /  11.1km/h 8.0mph /  12.9km/h 14% 0.00in /  0mm 735.0 W/m2
15:59 92.1 °F /  33.4 °C 36.1 °F /  2.3 °C 29.74in /  1007hPa ENE 6.9mph /  11.1km/h 12.0mph /  19.3km/h 14% 0.00in /  0mm 719.0 W/m2
16:05 91.8 °F /  33.2 °C 34.0 °F /  1.1 °C 29.74in /  1007hPa SE 8.1mph /  13km/h 13.0mph /  20.9km/h 13% 0.00in /  0mm 169.0 W/m2
16:10 91.0 °F /  32.8 °C 35.2 °F /  1.8 °C 29.74in /  1007hPa ENE 4.9mph /  7.9km/h 6.0mph /  9.7km/h 14% 0.00in /  0mm 731.0 W/m2
16:15 90.7 °F /  32.6 °C 34.9 °F /  1.6 °C 29.73in /  1006.7hPa ENE 8.1mph /  13km/h 15.0mph /  24.1km/h 14% 0.00in /  0mm 178.0 W/m2
16:20 90.5 °F /  32.5 °C 34.9 °F /  1.6 °C 29.74in /  1007hPa ENE 6.9mph /  11.1km/h 14.0mph /  22.5km/h 14% 0.00in /  0mm 647.0 W/m2
16:30 90.0 °F /  32.2 °C 32.5 °F /  0.3 °C 29.73in /  1006.7hPa SE 2.9mph /  4.7km/h 11.0mph /  17.7km/h 13% 0.00in /  0mm 88.0 W/m2
16:35 89.4 °F /  31.9 °C 34.0 °F /  1.1 °C 29.73in /  1006.7hPa East 0.9mph /  1.4km/h 3.0mph /  4.8km/h 14% 0.00in /  0mm 120.0 W/m2
16:40 89.1 °F /  31.7 °C 33.6 °F /  0.9 °C 29.73in /  1006.7hPa NNE 2.9mph /  4.7km/h 5.0mph /  8km/h 14% 0.00in /  0mm 582.0 W/m2
16:45 89.4 °F /  31.9 °C 32.2 °F /  0.1 °C 29.73in /  1006.7hPa ESE 2.0mph /  3.2km/h 4.0mph /  6.4km/h 13% 0.00in /  0mm 547.0 W/m2
16:51 90.1 °F /  32.3 °C 34.5 °F /  1.4 °C 29.73in /  1006.7hPa East 4.0mph /  6.4km/h 14.0mph /  22.5km/h 14% 0.00in /  0mm 524.0 W/m2
16:56 90.5 °F /  32.5 °C 32.9 °F /  0.5 °C 29.73in /  1006.7hPa ESE 2.9mph /  4.7km/h 14.0mph /  22.5km/h 13% 0.00in /  0mm 503.0 W/m2
17:01 90.9 °F /  32.7 °C 35.1 °F /  1.7 °C 29.73in /  1006.7hPa East 2.0mph /  3.2km/h 5.0mph /  8km/h 14% 0.00in /  0mm 468.0 W/m2
17:06 91.0 °F /  32.8 °C 35.2 °F /  1.8 °C 29.73in /  1006.7hPa ESE 4.0mph /  6.4km/h 11.0mph /  17.7km/h 14% 0.00in /  0mm 415.0 W/m2
17:11 90.7 °F /  32.6 °C 33.1 °F /  0.6 °C 29.72in /  1006.3hPa East 4.9mph /  7.9km/h 9.0mph /  14.5km/h 13% 0.00in /  0mm 107.0 W/m2
17:16 90.0 °F /  32.2 °C 34.3 °F /  1.3 °C 29.72in /  1006.3hPa ESE 8.1mph /  13km/h 10.0mph /  16.1km/h 14% 0.00in /  0mm 88.0 W/m2
17:21 89.1 °F /  31.7 °C 33.6 °F /  0.9 °C 29.72in /  1006.3hPa East 6.0mph /  9.7km/h 9.0mph /  14.5km/h 14% 0.00in /  0mm 86.0 W/m2
17:26 88.3 °F /  31.3 °C 34.9 °F /  1.6 °C 29.72in /  1006.3hPa ENE 4.9mph /  7.9km/h 10.0mph /  16.1km/h 15% 0.00in /  0mm 84.0 W/m2
17:31 88.2 °F /  31.2 °C 34.7 °F /  1.5 °C 29.72in /  1006.3hPa East 6.0mph /  9.7km/h 7.0mph /  11.3km/h 15% 0.00in /  0mm 306.0 W/m2
17:36 88.0 °F /  31.1 °C 34.5 °F /  1.4 °C 29.72in /  1006.3hPa ENE 2.0mph /  3.2km/h 9.0mph /  14.5km/h 15% 0.00in /  0mm 186.0 W/m2
17:42 87.6 °F /  30.9 °C 34.3 °F /  1.3 °C 29.72in /  1006.3hPa ESE 4.0mph /  6.4km/h 7.0mph /  11.3km/h 15% 0.00in /  0mm 60.0 W/m2
17:47 87.3 °F /  30.7 °C 34.0 °F /  1.1 °C 29.72in /  1006.3hPa ESE 4.9mph /  7.9km/h 6.0mph /  9.7km/h 15% 0.00in /  0mm 65.0 W/m2
17:52 87.1 °F /  30.6 °C 33.8 °F /  1 °C 29.72in /  1006.3hPa ESE 4.9mph /  7.9km/h 6.0mph /  9.7km/h 15% 0.00in /  0mm 72.0 W/m2
17:57 86.7 °F /  30.4 °C 33.6 °F /  0.9 °C 29.72in /  1006.3hPa SE 2.9mph /  4.7km/h 7.0mph /  11.3km/h 15% 0.00in /  0mm 76.0 W/m2
18:02 86.5 °F /  30.3 °C 35.1 °F /  1.7 °C 29.73in /  1006.7hPa SE 0.9mph /  1.4km/h 4.0mph /  6.4km/h 16% 0.00in /  0mm 86.0 W/m2
18:07 86.4 °F /  30.2 °C 34.9 °F /  1.6 °C 29.72in /  1006.3hPa Calm   7.0mph /  11.3km/h 16% 0.00in /  0mm 62.0 W/m2
18:12 86.2 °F /  30.1 °C 34.7 °F /  1.5 °C 29.73in /  1006.7hPa East 0.9mph /  1.4km/h 3.0mph /  4.8km/h 16% 0.00in /  0mm 51.0 W/m2
18:17 86.0 °F /  30 °C 36.1 °F /  2.3 °C 29.73in /  1006.7hPa ESE 2.0mph /  3.2km/h 4.0mph /  6.4km/h 17% 0.00in /  0mm 40.0 W/m2
18:22 85.6 °F /  29.8 °C 34.3 °F /  1.3 °C 29.73in /  1006.7hPa ESE 2.0mph /  3.2km/h 4.0mph /  6.4km/h 16% 0.00in /  0mm 30.0 W/m2
18:28 85.5 °F /  29.7 °C 34.2 °F /  1.2 °C 29.73in /  1006.7hPa ENE 2.9mph /  4.7km/h 7.0mph /  11.3km/h 16% 0.00in /  0mm 46.0 W/m2
18:33 85.3 °F /  29.6 °C 34.0 °F /  1.1 °C 29.73in /  1006.7hPa ESE 0.9mph /  1.4km/h 4.0mph /  6.4km/h 16% 0.00in /  0mm 30.0 W/m2
18:38 85.3 °F /  29.6 °C 35.6 °F /  2 °C 29.73in /  1006.7hPa ESE 4.0mph /  6.4km/h 4.0mph /  6.4km/h 17% 0.00in /  0mm 19.0 W/m2
18:43 84.9 °F /  29.4 °C 35.2 °F /  1.8 °C 29.73in /  1006.7hPa Calm   5.0mph /  8km/h 17% 0.00in /  0mm 18.0 W/m2
18:48 84.6 °F /  29.2 °C 34.9 °F /  1.6 °C 29.73in /  1006.7hPa ESE 0.9mph /  1.4km/h 2.0mph /  3.2km/h 17% 0.00in /  0mm 14.0 W/m2
18:53 84.4 °F /  29.1 °C 36.3 °F /  2.4 °C 29.74in /  1007hPa ESE 0.9mph /  1.4km/h 2.0mph /  3.2km/h 18% 0.00in /  0mm 9.0 W/m2
18:58 84.0 °F /  28.9 °C 36.0 °F /  2.2 °C 29.74in /  1007hPa Calm   2.0mph /  3.2km/h 18% 0.00in /  0mm 5.0 W/m2
19:03 83.7 °F /  28.7 °C 37.0 °F /  2.8 °C 29.74in /  1007hPa Calm   1.0mph /  1.6km/h 19% 0.00in /  0mm 0.0 W/m2
19:08 83.3 °F /  28.5 °C 36.7 °F /  2.6 °C 29.74in /  1007hPa Calm   4.0mph /  6.4km/h 19% 0.00in /  0mm 0.0 W/m2
19:14 82.8 °F /  28.2 °C 36.3 °F /  2.4 °C 29.74in /  1007hPa ESE 0.9mph /  1.4km/h 2.0mph /  3.2km/h 19% 0.00in /  0mm 0.0 W/m2
19:19 82.4 °F /  28 °C 37.2 °F /  2.9 °C 29.74in /  1007hPa ESE 2.0mph /  3.2km/h 3.0mph /  4.8km/h 20% 0.00in /  0mm 0.0 W/m2
19:24 82.0 °F /  27.8 °C 37.0 °F /  2.8 °C 29.75in /  1007.3hPa Calm   3.0mph /  4.8km/h 20% 0.00in /  0mm 0.0 W/m2
19:29 81.7 °F /  27.6 °C 36.7 °F /  2.6 °C 29.75in /  1007.3hPa Calm   1.0mph /  1.6km/h 20% 0.00in /  0mm 0.0 W/m2
19:35 81.3 °F /  27.4 °C 37.6 °F /  3.1 °C 29.75in /  1007.3hPa ESE 0.9mph /  1.4km/h 2.0mph /  3.2km/h 21% 0.00in /  0mm 0.0 W/m2
19:40 81.0 °F /  27.2 °C 37.4 °F /  3 °C 29.75in /  1007.3hPa Calm   1.0mph /  1.6km/h 21% 0.00in /  0mm 0.0 W/m2
19:45 80.6 °F /  27 °C 38.3 °F /  3.5 °C 29.75in /  1007.3hPa Calm   1.0mph /  1.6km/h 22% 0.00in /  0mm 0.0 W/m2
19:51 80.2 °F /  26.8 °C 37.9 °F /  3.3 °C 29.76in /  1007.7hPa Calm   1.0mph /  1.6km/h 22% 0.00in /  0mm 0.0 W/m2
19:57 79.9 °F /  26.6 °C 38.8 °F /  3.8 °C 29.76in /  1007.7hPa Calm     23% 0.00in /  0mm 0.0 W/m2
20:02 79.3 °F /  26.3 °C 38.3 °F /  3.5 °C 29.76in /  1007.7hPa Calm     23% 0.00in /  0mm 0.0 W/m2
20:07 79.0 °F /  26.1 °C 39.2 °F /  4 °C 29.76in /  1007.7hPa Calm     24% 0.00in /  0mm 0.0 W/m2
20:13 78.4 °F /  25.8 °C 39.7 °F /  4.3 °C 29.76in /  1007.7hPa Calm     25% 0.00in /  0mm 0.0 W/m2
20:18 78.1 °F /  25.6 °C 38.3 °F /  3.5 °C 29.76in /  1007.7hPa Calm     24% 0.00in /  0mm 0.0 W/m2
20:23 77.5 °F /  25.3 °C 39.0 °F /  3.9 °C 29.77in /  1008hPa Calm     25% 0.00in /  0mm 0.0 W/m2
20:29 77.2 °F /  25.1 °C 39.6 °F /  4.2 °C 29.76in /  1007.7hPa Calm   1.0mph /  1.6km/h 26% 0.00in /  0mm 0.0 W/m2
20:34 76.6 °F /  24.8 °C 40.1 °F /  4.5 °C 29.77in /  1008hPa Calm     27% 0.00in /  0mm 0.0 W/m2
20:40 76.3 °F /  24.6 °C 39.9 °F /  4.4 °C 29.77in /  1008hPa Calm     27% 0.00in /  0mm 0.0 W/m2
20:45 75.9 °F /  24.4 °C 40.5 °F /  4.7 °C 29.77in /  1008hPa Calm   1.0mph /  1.6km/h 28% 0.00in /  0mm 0.0 W/m2
20:50 75.7 °F /  24.3 °C 41.2 °F /  5.1 °C 29.77in /  1008hPa Calm     29% 0.00in /  0mm 0.0 W/m2
20:55 75.4 °F /  24.1 °C 41.0 °F /  5 °C 29.77in /  1008hPa Calm   2.0mph /  3.2km/h 29% 0.00in /  0mm 0.0 W/m2
21:00 75.0 °F /  23.9 °C 41.5 °F /  5.3 °C 29.77in /  1008hPa Calm   1.0mph /  1.6km/h 30% 0.00in /  0mm 0.0 W/m2
21:05 74.8 °F /  23.8 °C 41.4 °F /  5.2 °C 29.77in /  1008hPa Calm   2.0mph /  3.2km/h 30% 0.00in /  0mm 0.0 W/m2
21:10 74.7 °F /  23.7 °C 42.1 °F /  5.6 °C 29.77in /  1008hPa Calm   1.0mph /  1.6km/h 31% 0.00in /  0mm 0.0 W/m2
21:15 74.5 °F /  23.6 °C 41.9 °F /  5.5 °C 29.77in /  1008hPa East 0.9mph /  1.4km/h 2.0mph /  3.2km/h 31% 0.00in /  0mm 0.0 W/m2
21:20 74.1 °F /  23.4 °C 41.5 °F /  5.3 °C 29.77in /  1008hPa Calm   2.0mph /  3.2km/h 31% 0.00in /  0mm 0.0 W/m2
21:26 73.8 °F /  23.2 °C 42.1 °F /  5.6 °C 29.77in /  1008hPa ENE 0.9mph /  1.4km/h 2.0mph /  3.2km/h 32% 0.00in /  0mm 0.0 W/m2
21:31 73.6 °F /  23.1 °C 41.9 °F /  5.5 °C 29.77in /  1008hPa Calm   1.0mph /  1.6km/h 32% 0.00in /  0mm 0.0 W/m2
21:36 73.4 °F /  23 °C 41.7 °F /  5.4 °C 29.77in /  1008hPa ENE 0.9mph /  1.4km/h 2.0mph /  3.2km/h 32% 0.00in /  0mm 0.0 W/m2
21:41 73.0 °F /  22.8 °C 42.3 °F /  5.7 °C 29.77in /  1008hPa Calm   3.0mph /  4.8km/h 33% 0.00in /  0mm 0.0 W/m2
21:46 72.9 °F /  22.7 °C 42.1 °F /  5.6 °C 29.77in /  1008hPa Calm   2.0mph /  3.2km/h 33% 0.00in /  0mm 0.0 W/m2
21:51 72.7 °F /  22.6 °C 41.9 °F /  5.5 °C 29.77in /  1008hPa ENE 2.0mph /  3.2km/h 3.0mph /  4.8km/h 33% 0.00in /  0mm 0.0 W/m2
21:56 72.3 °F /  22.4 °C 42.4 °F /  5.8 °C 29.77in /  1008hPa Calm   3.0mph /  4.8km/h 34% 0.00in /  0mm 0.0 W/m2
22:01 72.1 °F /  22.3 °C 42.3 °F /  5.7 °C 29.77in /  1008hPa Calm   3.0mph /  4.8km/h 34% 0.00in /  0mm 0.0 W/m2
22:07 72.0 °F /  22.2 °C 42.1 °F /  5.6 °C 29.77in /  1008hPa Calm   2.0mph /  3.2km/h 34% 0.00in /  0mm 0.0 W/m2
22:12 71.8 °F /  22.1 °C 41.9 °F /  5.5 °C 29.77in /  1008hPa Calm   1.0mph /  1.6km/h 34% 0.00in /  0mm 0.0 W/m2
22:17 71.4 °F /  21.9 °C 42.3 °F /  5.7 °C 29.78in /  1008.4hPa Calm   2.0mph /  3.2km/h 35% 0.00in /  0mm 0.0 W/m2
22:22 71.2 °F /  21.8 °C 42.3 °F /  5.7 °C 29.78in /  1008.4hPa Calm   1.0mph /  1.6km/h 35% 0.00in /  0mm 0.0 W/m2
22:27 71.1 °F /  21.7 °C 42.1 °F /  5.6 °C 29.78in /  1008.4hPa Calm   3.0mph /  4.8km/h 35% 0.00in /  0mm 0.0 W/m2
22:32 71.1 °F /  21.7 °C 42.1 °F /  5.6 °C 29.78in /  1008.4hPa Calm   1.0mph /  1.6km/h 35% 0.00in /  0mm 0.0 W/m2
22:37 70.9 °F /  21.6 °C 41.9 °F /  5.5 °C 29.78in /  1008.4hPa Calm   1.0mph /  1.6km/h 35% 0.00in /  0mm 0.0 W/m2
22:42 70.5 °F /  21.4 °C 41.5 °F /  5.3 °C 29.78in /  1008.4hPa Calm   2.0mph /  3.2km/h 35% 0.00in /  0mm 0.0 W/m2
22:48 70.3 °F /  21.3 °C 41.4 °F /  5.2 °C 29.78in /  1008.4hPa ENE 0.9mph /  1.4km/h 4.0mph /  6.4km/h 35% 0.00in /  0mm 0.0 W/m2
22:53 70.3 °F /  21.3 °C 41.4 °F /  5.2 °C 29.78in /  1008.4hPa Calm   3.0mph /  4.8km/h 35% 0.00in /  0mm 0.0 W/m2
22:58 70.2 °F /  21.2 °C 41.9 °F /  5.5 °C 29.78in /  1008.4hPa Calm   1.0mph /  1.6km/h 36% 0.00in /  0mm 0.0 W/m2
23:03 70.2 °F /  21.2 °C 41.2 °F /  5.1 °C 29.78in /  1008.4hPa SE 2.0mph /  3.2km/h 2.0mph /  3.2km/h 35% 0.00in /  0mm 0.0 W/m2
23:08 70.2 °F /  21.2 °C 41.9 °F /  5.5 °C 29.78in /  1008.4hPa Calm     36% 0.00in /  0mm 0.0 W/m2
23:13 70.0 °F /  21.1 °C 41.7 °F /  5.4 °C 29.78in /  1008.4hPa Calm   3.0mph /  4.8km/h 36% 0.00in /  0mm 0.0 W/m2
23:18 70.0 °F /  21.1 °C 41.7 °F /  5.4 °C 29.78in /  1008.4hPa Calm   3.0mph /  4.8km/h 36% 0.00in /  0mm 0.0 W/m2
23:23 69.8 °F /  21 °C 42.4 °F /  5.8 °C 29.78in /  1008.4hPa East 4.9mph /  7.9km/h 5.0mph /  8km/h 37% 0.00in /  0mm 0.0 W/m2
23:28 69.6 °F /  20.9 °C 42.3 °F /  5.7 °C 29.78in /  1008.4hPa NE 2.0mph /  3.2km/h 2.0mph /  3.2km/h 37% 0.00in /  0mm 0.0 W/m2
23:33 69.6 °F /  20.9 °C 42.3 °F /  5.7 °C 29.78in /  1008.4hPa Calm   2.0mph /  3.2km/h 37% 0.00in /  0mm 0.0 W/m2
23:38 69.6 °F /  20.9 °C 42.3 °F /  5.7 °C 29.78in /  1008.4hPa Calm   2.0mph /  3.2km/h 37% 0.00in /  0mm 0.0 W/m2
23:43 69.4 °F /  20.8 °C 42.1 °F /  5.6 °C 29.78in /  1008.4hPa NE 2.0mph /  3.2km/h 2.0mph /  3.2km/h 37% 0.00in /  0mm 0.0 W/m2
23:49 69.4 °F /  20.8 °C 42.8 °F /  6 °C 29.78in /  1008.4hPa Calm   3.0mph /  4.8km/h 38% 0.00in /  0mm 0.0 W/m2
23:54 69.3 °F /  20.7 °C 42.6 °F /  5.9 °C 29.78in /  1008.4hPa Calm   1.0mph /  1.6km/h 38% 0.00in /  0mm 0.0 W/m2
23:59 69.1 °F /  20.6 °C 42.4 °F /  5.8 °C 29.78in /  1008.4hPa Calm   2.0mph /  3.2km/h 38% 0.00in /  0mm 0.0 W/m2
Olympia, Windhoek, Namibia
Compliments of Weather Underground - 3.25 mb